WJA436 CYEG-CYYZ
Flight info
| Callsign | WJA436 |
|---|---|
| Flight time | N/A |
| Altitude | 37000 |
| Route | RYLEY DCT TAGOT DCT MUTUR DCT KOBID DCT AGLIN DCT OTNIK BOXUM7 |
| Aircraft | B737/M-SDE2E3FGHIRWXY/LB1 |
Departure
| Time | N/A |
|---|---|
| Airport | Edmonton International Airport (CYEG) |
Arrival
| Time | 2026-05-04 20:28 |
|---|---|
| Airport | Toronto Pearson International Airport (CYYZ) |
| Time | Latitude | Longitude | Altitude | Speed | Heading |
|---|---|---|---|---|---|
| 2026-05-04 19:27 | 47.80974 | -87.91875 | 36377 ft | 494 kts | 117° |
| 2026-05-04 19:28 | 47.78136 | -87.82487 | 36351 ft | 494 kts | 117° |
| 2026-05-04 19:28 | 47.75331 | -87.73244 | 36370 ft | 494 kts | 117° |
| 2026-05-04 19:29 | 47.72958 | -87.65450 | 36377 ft | 495 kts | 117° |
| 2026-05-04 19:29 | 47.69641 | -87.54599 | 36386 ft | 499 kts | 117° |
| 2026-05-04 19:30 | 47.66742 | -87.45157 | 36373 ft | 504 kts | 118° |
| 2026-05-04 19:30 | 47.64322 | -87.37295 | 36376 ft | 504 kts | 118° |
| 2026-05-04 19:31 | 47.61404 | -87.27850 | 36388 ft | 504 kts | 118° |
| 2026-05-04 19:31 | 47.58478 | -87.18412 | 36393 ft | 504 kts | 118° |
| 2026-05-04 19:32 | 47.55549 | -87.09005 | 36367 ft | 503 kts | 118° |
| 2026-05-04 19:32 | 47.52615 | -86.99615 | 36396 ft | 502 kts | 118° |
| 2026-05-04 19:33 | 47.49694 | -86.90305 | 36407 ft | 503 kts | 118° |
| 2026-05-04 19:33 | 47.46741 | -86.80926 | 36412 ft | 503 kts | 118° |
| 2026-05-04 19:34 | 47.43779 | -86.71554 | 36411 ft | 504 kts | 118° |
| 2026-05-04 19:34 | 47.40804 | -86.62173 | 36413 ft | 504 kts | 118° |
| 2026-05-04 19:35 | 47.37823 | -86.52810 | 36419 ft | 505 kts | 119° |
| 2026-05-04 19:35 | 47.34828 | -86.43436 | 36419 ft | 505 kts | 119° |
| 2026-05-04 19:36 | 47.31846 | -86.34139 | 36400 ft | 505 kts | 119° |
| 2026-05-04 19:36 | 47.28836 | -86.24788 | 36415 ft | 505 kts | 119° |
| 2026-05-04 19:37 | 47.25816 | -86.15436 | 36428 ft | 506 kts | 119° |
| 2026-05-04 19:37 | 47.22779 | -86.06068 | 36428 ft | 507 kts | 119° |
| 2026-05-04 19:38 | 47.19743 | -85.96738 | 36432 ft | 507 kts | 119° |
| 2026-05-04 19:38 | 47.16689 | -85.87388 | 36431 ft | 508 kts | 119° |
| 2026-05-04 19:39 | 47.13646 | -85.78104 | 36429 ft | 507 kts | 120° |
| 2026-05-04 19:39 | 47.10582 | -85.68791 | 36433 ft | 507 kts | 120° |
| 2026-05-04 19:40 | 47.07509 | -85.59485 | 36429 ft | 506 kts | 120° |
| 2026-05-04 19:40 | 47.04429 | -85.50190 | 36429 ft | 507 kts | 120° |
| 2026-05-04 19:41 | 47.01341 | -85.40905 | 36429 ft | 507 kts | 120° |
| 2026-05-04 19:41 | 46.98268 | -85.31697 | 36433 ft | 507 kts | 120° |
| 2026-05-04 19:42 | 46.95159 | -85.22416 | 36434 ft | 507 kts | 120° |
| 2026-05-04 19:42 | 46.92046 | -85.13154 | 36427 ft | 508 kts | 120° |
| 2026-05-04 19:43 | 46.88919 | -85.03885 | 36428 ft | 508 kts | 121° |
| 2026-05-04 19:43 | 46.85789 | -84.94639 | 36409 ft | 508 kts | 121° |
| 2026-05-04 19:44 | 46.82646 | -84.85386 | 36430 ft | 509 kts | 121° |
| 2026-05-04 19:44 | 46.79511 | -84.76193 | 36455 ft | 510 kts | 121° |
| 2026-05-04 19:45 | 46.76338 | -84.66920 | 36445 ft | 512 kts | 121° |
| 2026-05-04 19:45 | 46.73142 | -84.57612 | 36450 ft | 514 kts | 121° |
| 2026-05-04 19:46 | 46.69931 | -84.48292 | 36460 ft | 516 kts | 121° |
| 2026-05-04 19:46 | 46.66704 | -84.38959 | 36458 ft | 517 kts | 121° |
| 2026-05-04 19:47 | 46.63488 | -84.29689 | 36438 ft | 516 kts | 121° |
| 2026-05-04 19:47 | 46.60246 | -84.20378 | 36445 ft | 515 kts | 121° |
| 2026-05-04 19:48 | 46.57003 | -84.11096 | 36447 ft | 514 kts | 121° |
| 2026-05-04 19:48 | 46.53757 | -84.01842 | 36440 ft | 513 kts | 121° |
| 2026-05-04 19:49 | 46.50513 | -83.92621 | 36436 ft | 513 kts | 122° |
| 2026-05-04 19:49 | 46.47281 | -83.83468 | 36437 ft | 512 kts | 122° |
| 2026-05-04 19:50 | 46.44027 | -83.74284 | 36446 ft | 512 kts | 122° |
| 2026-05-04 19:50 | 46.40760 | -83.65099 | 36440 ft | 513 kts | 123° |
| 2026-05-04 19:51 | 46.36940 | -83.56504 | 36426 ft | 507 kts | 131° |
| 2026-05-04 19:51 | 46.32789 | -83.48283 | 36422 ft | 505 kts | 132° |
| 2026-05-04 19:52 | 46.28663 | -83.40052 | 36433 ft | 505 kts | 131° |
| 2026-05-04 19:52 | 46.24616 | -83.31854 | 36432 ft | 504 kts | 131° |
| 2026-05-04 19:53 | 46.20553 | -83.23610 | 36436 ft | 504 kts | 131° |
| 2026-05-04 19:53 | 46.16476 | -83.15373 | 36429 ft | 504 kts | 131° |
| 2026-05-04 19:54 | 46.12403 | -83.07170 | 36438 ft | 502 kts | 131° |
| 2026-05-04 19:54 | 46.08325 | -82.98991 | 36457 ft | 502 kts | 131° |
| 2026-05-04 19:55 | 46.04249 | -82.90846 | 36453 ft | 502 kts | 131° |
| 2026-05-04 19:55 | 46.00170 | -82.82713 | 36449 ft | 502 kts | 131° |
| 2026-05-04 19:56 | 45.96104 | -82.74630 | 36451 ft | 502 kts | 131° |
| 2026-05-04 19:56 | 45.92003 | -82.66501 | 36418 ft | 503 kts | 131° |
| 2026-05-04 19:57 | 45.87897 | -82.58380 | 36438 ft | 503 kts | 131° |
| 2026-05-04 19:57 | 45.83779 | -82.50260 | 36441 ft | 504 kts | 131° |
| 2026-05-04 19:58 | 45.79646 | -82.42137 | 36517 ft | 505 kts | 131° |
| 2026-05-04 19:58 | 45.75495 | -82.34011 | 36524 ft | 506 kts | 131° |
| 2026-05-04 19:59 | 45.71327 | -82.25866 | 36526 ft | 507 kts | 131° |
| 2026-05-04 19:59 | 45.67157 | -82.17737 | 36520 ft | 507 kts | 131° |
| 2026-05-04 20:00 | 45.62985 | -82.09627 | 36520 ft | 506 kts | 131° |
| 2026-05-04 20:00 | 45.58398 | -82.02241 | 36558 ft | 496 kts | 142° |
| 2026-05-04 20:01 | 45.53342 | -81.95594 | 36543 ft | 494 kts | 143° |
| 2026-05-04 20:01 | 45.48284 | -81.88969 | 36540 ft | 494 kts | 143° |
| 2026-05-04 20:02 | 45.43267 | -81.82302 | 36543 ft | 493 kts | 143° |
| 2026-05-04 20:02 | 45.38259 | -81.75623 | 36549 ft | 493 kts | 143° |
| 2026-05-04 20:03 | 45.33256 | -81.68972 | 36547 ft | 493 kts | 143° |
| 2026-05-04 20:03 | 45.28237 | -81.62321 | 36560 ft | 493 kts | 143° |
| 2026-05-04 20:04 | 45.23217 | -81.55690 | 36555 ft | 493 kts | 143° |
| 2026-05-04 20:04 | 45.18193 | -81.49073 | 36528 ft | 493 kts | 142° |
| 2026-05-04 20:05 | 45.13171 | -81.42472 | 36551 ft | 492 kts | 142° |
| 2026-05-04 20:05 | 45.08178 | -81.35928 | 36559 ft | 493 kts | 142° |
| 2026-05-04 20:06 | 45.03145 | -81.29347 | 36561 ft | 493 kts | 142° |
| 2026-05-04 20:06 | 44.98099 | -81.22764 | 36418 ft | 496 kts | 143° |
| 2026-05-04 20:06 | 44.95545 | -81.19443 | 35734 ft | 501 kts | 143° |
| 2026-05-04 20:07 | 44.92990 | -81.16114 | 35021 ft | 499 kts | 142° |
| 2026-05-04 20:07 | 44.90429 | -81.12802 | 34246 ft | 499 kts | 144° |
| 2026-05-04 20:07 | 44.87856 | -81.09509 | 33427 ft | 501 kts | 143° |
| 2026-05-04 20:07 | 44.85283 | -81.06173 | 32482 ft | 504 kts | 143° |
| 2026-05-04 20:08 | 44.82710 | -81.02824 | 31727 ft | 502 kts | 142° |
| 2026-05-04 20:08 | 44.80163 | -80.99507 | 31152 ft | 495 kts | 143° |
| 2026-05-04 20:08 | 44.77646 | -80.96240 | 30544 ft | 491 kts | 143° |
| 2026-05-04 20:08 | 44.75176 | -80.93049 | 29964 ft | 486 kts | 143° |
| 2026-05-04 20:09 | 44.72696 | -80.89855 | 29332 ft | 481 kts | 143° |
| 2026-05-04 20:09 | 44.70245 | -80.86702 | 28662 ft | 475 kts | 142° |
| 2026-05-04 20:09 | 44.67817 | -80.83584 | 28070 ft | 468 kts | 143° |
| 2026-05-04 20:09 | 44.65428 | -80.80521 | 27461 ft | 463 kts | 143° |
| 2026-05-04 20:10 | 44.63061 | -80.77489 | 26872 ft | 458 kts | 143° |
| 2026-05-04 20:10 | 44.60719 | -80.74492 | 26262 ft | 453 kts | 143° |
| 2026-05-04 20:10 | 44.58396 | -80.71522 | 25686 ft | 449 kts | 143° |
| 2026-05-04 20:10 | 44.56070 | -80.68553 | 25098 ft | 445 kts | 143° |
| 2026-05-04 20:11 | 44.53791 | -80.65647 | 24535 ft | 441 kts | 143° |
| 2026-05-04 20:11 | 44.51531 | -80.62768 | 23949 ft | 438 kts | 143° |
| 2026-05-04 20:11 | 44.49277 | -80.59900 | 23363 ft | 436 kts | 143° |
| 2026-05-04 20:11 | 44.47067 | -80.57091 | 22701 ft | 434 kts | 143° |
| 2026-05-04 20:12 | 44.44817 | -80.54234 | 22059 ft | 429 kts | 143° |
| 2026-05-04 20:12 | 44.42644 | -80.51478 | 21499 ft | 424 kts | 143° |
| 2026-05-04 20:12 | 44.40474 | -80.48726 | 20909 ft | 420 kts | 143° |
| 2026-05-04 20:12 | 44.38323 | -80.46002 | 20340 ft | 416 kts | 143° |
| 2026-05-04 20:13 | 44.36192 | -80.43306 | 19775 ft | 412 kts | 143° |
| 2026-05-04 20:13 | 44.34076 | -80.40633 | 19221 ft | 408 kts | 143° |
| 2026-05-04 20:13 | 44.31982 | -80.37991 | 18657 ft | 404 kts | 143° |
| 2026-05-04 20:13 | 44.29899 | -80.35365 | 18100 ft | 401 kts | 143° |
| 2026-05-04 20:14 | 44.27835 | -80.32766 | 17472 ft | 399 kts | 143° |
| 2026-05-04 20:14 | 44.25782 | -80.30182 | 16876 ft | 395 kts | 143° |
| 2026-05-04 20:14 | 44.23752 | -80.27629 | 16295 ft | 391 kts | 143° |
| 2026-05-04 20:14 | 44.21738 | -80.25099 | 15737 ft | 387 kts | 143° |
| 2026-05-04 20:15 | 44.19753 | -80.22607 | 15184 ft | 383 kts | 143° |
| 2026-05-04 20:15 | 44.17785 | -80.20139 | 14639 ft | 378 kts | 143° |
| 2026-05-04 20:15 | 44.15841 | -80.17703 | 14099 ft | 375 kts | 143° |
| 2026-05-04 20:15 | 44.13914 | -80.15288 | 13571 ft | 371 kts | 143° |
| 2026-05-04 20:16 | 44.12006 | -80.12898 | 13031 ft | 367 kts | 143° |
| 2026-05-04 20:16 | 44.10165 | -80.10587 | 12670 ft | 357 kts | 143° |
| 2026-05-04 20:16 | 44.08335 | -80.08296 | 12176 ft | 352 kts | 143° |
| 2026-05-04 20:16 | 44.06523 | -80.06028 | 11679 ft | 349 kts | 143° |
| 2026-05-04 20:17 | 44.04761 | -80.03822 | 11548 ft | 333 kts | 143° |
| 2026-05-04 20:17 | 44.03071 | -80.01711 | 11400 ft | 320 kts | 144° |
| 2026-05-04 20:17 | 44.01432 | -79.99706 | 11175 ft | 309 kts | 148° |
| 2026-05-04 20:17 | 43.99684 | -79.98022 | 10765 ft | 303 kts | 154° |
| 2026-05-04 20:18 | 43.97899 | -79.96496 | 10357 ft | 300 kts | 156° |
| 2026-05-04 20:18 | 43.96124 | -79.94995 | 10083 ft | 294 kts | 155° |
| 2026-05-04 20:18 | 43.94419 | -79.93530 | 9900 ft | 284 kts | 155° |
| 2026-05-04 20:18 | 43.92750 | -79.92084 | 9588 ft | 281 kts | 155° |
| 2026-05-04 20:19 | 43.91107 | -79.90647 | 9255 ft | 278 kts | 155° |
| 2026-05-04 20:19 | 43.89474 | -79.89212 | 8897 ft | 277 kts | 155° |
| 2026-05-04 20:19 | 43.87864 | -79.87793 | 8625 ft | 271 kts | 154° |
| 2026-05-04 20:19 | 43.86304 | -79.86411 | 8508 ft | 260 kts | 155° |
| 2026-05-04 20:20 | 43.84826 | -79.85105 | 8389 ft | 251 kts | 155° |
| 2026-05-04 20:20 | 43.83453 | -79.83585 | 8109 ft | 256 kts | 143° |
| 2026-05-04 20:20 | 43.82184 | -79.81861 | 7830 ft | 255 kts | 142° |
| 2026-05-04 20:20 | 43.80925 | -79.80144 | 7557 ft | 253 kts | 143° |
| 2026-05-04 20:21 | 43.79662 | -79.78459 | 7251 ft | 253 kts | 144° |
| 2026-05-04 20:21 | 43.78394 | -79.76779 | 6975 ft | 251 kts | 144° |
| 2026-05-04 20:21 | 43.76302 | -79.72938 | 6398 ft | 266 kts | 105° |
| 2026-05-04 20:22 | 43.76428 | -79.70401 | 6187 ft | 268 kts | 66° |
| 2026-05-04 20:22 | 43.77467 | -79.68360 | 6102 ft | 255 kts | 43° |
| 2026-05-04 20:22 | 43.78684 | -79.66619 | 5902 ft | 251 kts | 42° |
| 2026-05-04 20:22 | 43.79926 | -79.64870 | 5622 ft | 258 kts | 43° |
| 2026-05-04 20:23 | 43.81184 | -79.63072 | 5332 ft | 261 kts | 43° |
| 2026-05-04 20:23 | 43.82443 | -79.61256 | 5069 ft | 261 kts | 44° |
| 2026-05-04 20:23 | 43.83552 | -79.59286 | 4735 ft | 259 kts | 67° |
| 2026-05-04 20:23 | 43.83770 | -79.56910 | 4431 ft | 243 kts | 109° |
| 2026-05-04 20:24 | 43.82989 | -79.55010 | 4167 ft | 219 kts | 144° |
| 2026-05-04 20:24 | 43.81865 | -79.53611 | 3626 ft | 224 kts | 144° |
| 2026-05-04 20:24 | 43.80650 | -79.52259 | 3265 ft | 216 kts | 159° |
| 2026-05-04 20:24 | 43.79289 | -79.51914 | 3150 ft | 190 kts | 190° |
| 2026-05-04 20:25 | 43.78067 | -79.52367 | 2957 ft | 177 kts | 205° |
| 2026-05-04 20:25 | 43.76961 | -79.53031 | 2735 ft | 170 kts | 210° |
| 2026-05-04 20:25 | 43.76038 | -79.54028 | 2523 ft | 167 kts | 221° |
| 2026-05-04 20:25 | 43.75208 | -79.55109 | 2317 ft | 165 kts | 223° |
| 2026-05-04 20:26 | 43.74414 | -79.56245 | 2089 ft | 158 kts | 225° |
| 2026-05-04 20:26 | 43.73695 | -79.57294 | 1889 ft | 145 kts | 225° |
| 2026-05-04 20:26 | 43.72998 | -79.58300 | 1661 ft | 143 kts | 224° |
| 2026-05-04 20:26 | 43.72310 | -79.59297 | 1457 ft | 142 kts | 225° |
| 2026-05-04 20:27 | 43.71642 | -79.60282 | 1303 ft | 141 kts | 224° |
| 2026-05-04 20:27 | 43.70953 | -79.61268 | 1160 ft | 139 kts | 225° |
| 2026-05-04 20:27 | 43.70296 | -79.62233 | 928 ft | 138 kts | 223° |
| 2026-05-04 20:27 | 43.69616 | -79.63138 | 677 ft | 132 kts | 222° |
| 2026-05-04 20:28 | 43.69047 | -79.64051 | 573 ft | 116 kts | 224° |
| 2026-05-04 20:28 | 43.68578 | -79.64710 | 577 ft | 48 kts | 226° |
| 2026-05-04 20:28 | 43.68442 | -79.64747 | 571 ft | 11 kts | 135° |
| 2026-05-04 20:28 | 43.68389 | -79.64649 | 576 ft | 14 kts | 98° |
| 2026-05-04 20:29 | 43.68429 | -79.64530 | 574 ft | 14 kts | 48° |
| 2026-05-04 20:29 | 43.68500 | -79.64425 | 574 ft | 17 kts | 46° |
| 2026-05-04 20:29 | 43.68594 | -79.64292 | 573 ft | 20 kts | 45° |
| 2026-05-04 20:29 | 43.68689 | -79.64152 | 572 ft | 20 kts | 47° |
| 2026-05-04 20:30 | 43.68788 | -79.64009 | 575 ft | 20 kts | 46° |
| 2026-05-04 20:30 | 43.68884 | -79.63869 | 573 ft | 20 kts | 47° |
| 2026-05-04 20:30 | 43.68977 | -79.63733 | 574 ft | 19 kts | 45° |
| 2026-05-04 20:30 | 43.69025 | -79.63625 | 569 ft | 13 kts | 98° |
| 2026-05-04 20:31 | 43.68969 | -79.63533 | 570 ft | 13 kts | 138° |
| 2026-05-04 20:31 | 43.68884 | -79.63425 | 569 ft | 20 kts | 136° |
| 2026-05-04 20:31 | 43.68766 | -79.63267 | 564 ft | 26 kts | 137° |
| 2026-05-04 20:31 | 43.68638 | -79.63102 | 563 ft | 25 kts | 136° |
| 2026-05-04 20:32 | 43.68517 | -79.62944 | 567 ft | 23 kts | 137° |
| 2026-05-04 20:32 | 43.68403 | -79.62797 | 568 ft | 22 kts | 136° |
| 2026-05-04 20:32 | 43.68294 | -79.62650 | 571 ft | 22 kts | 136° |
| 2026-05-04 20:32 | 43.68209 | -79.62512 | 566 ft | 11 kts | 93° |
| 2026-05-04 20:33 | 43.68257 | -79.62429 | 567 ft | 11 kts | 45° |
| 2026-05-04 20:33 | 43.68292 | -79.62337 | 568 ft | 11 kts | 74° |
| 2026-05-04 20:33 | 43.68328 | -79.62248 | 564 ft | 11 kts | 68° |
| 2026-05-04 20:33 | 43.68312 | -79.62150 | 569 ft | 10 kts | 112° |
| 2026-05-04 20:34 | 43.68306 | -79.62132 | 567 ft | 0 kts | 112° |